Ana Sayfa
METAR-TAF:

METAR-TAF

Havaalanları :

İstanköy, Yunanistan

Enlem: 36-47N, Boylam: 027-04E, yükseklik: 129 m

Güncel hava durumu gözlemi

Rapor saat 18:50 UTC de 14 dakika önce yapıldı.
Rüzgar kuzeydan 7 kt
Sıcaklık 20°C
Nem 88%
Basınç 1017 hPa
Görüş mesafesi: 8000 m
1500 ft yükseklikte az bulutlu

METAR: LGKO 181850Z 36007KT 8000 FEW015 20/18 Q1017

Saat: 22:04 (19:04 UTC)

Tahmin

Rapor saat 17:00 UTC de 2 saat ve 4 dakika önce yapıldı.
Ayın 18'si saat 18 UTC'den ayın 19'si saat 18 UTC'ye kadar geçerli Tahmin
Rüzgar değişken yönden 5 kt
Görüş mesafesi: 9000 m
1500 ft yükseklikte az bulutlu
5000 ft yükseklikte parçalı bulutlu
Olasılık 30%
ayın 19'si saat 00 UTC'den ayın 19'si saat 07 UTC'ye kadar
Görüş mesafesi: 4000 m
1200 ft yükseklikte parçalı bulutlu
Pus
Dönüşüyor
ayın 19'si saat 08 UTC'den ayın 19'si saat 10 UTC'ye kadar
Rüzgar batıdan 10 kt

TAF: LGKO 181700Z 1818/1918 VRB05KT 9000 FEW015 SCT050 PROB30 1900/1907 4000 BR SCT012 BECMG 1908/1910 28010KT

4.000'den fazla havaalanı için hava durumu gözlemleri ve tahminleri (METAR ve TAF raporları).

Kullanılabilir istasyonlar harita üzerinde sarı ve kırmızı noktalarla gösterilir.

İstasyonun adını görmek için fareyi noktanın üzerinde gezdirin.

Sonrasında hava gözlem ve tahminlerini görmek için tıklayın.

Haritayı değiştirmek için: yaklaştırmak için siyah artı işaretli yeşil düğmeye ve uzaklaştırmak için de eksi işaretli düğmeye hızla tıklayın; bitişik haritalar için yeşil okları kullanın.


METAR-TAF: